sensor_id;sensor_type;location;lat;lon;timestamp;temperature;humidity
64689;DHT22;62504;46.070;14.492;2024-01-25T00:00:56;5.30;99.90
64689;DHT22;62504;46.070;14.492;2024-01-25T00:03:21;5.20;99.90
64689;DHT22;62504;46.070;14.492;2024-01-25T00:05:47;5.20;99.90
64689;DHT22;62504;46.070;14.492;2024-01-25T00:08:13;5.30;99.90
64689;DHT22;62504;46.070;14.492;2024-01-25T00:10:39;5.10;99.90
64689;DHT22;62504;46.070;14.492;2024-01-25T00:13:05;5.10;99.90
64689;DHT22;62504;46.070;14.492;2024-01-25T00:15:30;5.20;99.90
64689;DHT22;62504;46.070;14.492;2024-01-25T00:17:56;5.20;99.90
64689;DHT22;62504;46.070;14.492;2024-01-25T00:20:22;5.20;99.90
64689;DHT22;62504;46.070;14.492;2024-01-25T00:22:48;5.20;99.90
64689;DHT22;62504;46.070;14.492;2024-01-25T00:25:14;5.30;99.90
64689;DHT22;62504;46.070;14.492;2024-01-25T00:27:39;5.30;99.90
64689;DHT22;62504;46.070;14.492;2024-01-25T00:30:05;5.10;99.90
64689;DHT22;62504;46.070;14.492;2024-01-25T00:32:31;5.10;99.90
64689;DHT22;62504;46.070;14.492;2024-01-25T00:34:57;5.20;99.90
64689;DHT22;62504;46.070;14.492;2024-01-25T00:37:23;5.10;99.90
64689;DHT22;62504;46.070;14.492;2024-01-25T00:39:49;5.10;99.90
64689;DHT22;62504;46.070;14.492;2024-01-25T00:42:16;5.00;99.90
64689;DHT22;62504;46.070;14.492;2024-01-25T00:44:42;5.00;99.90
64689;DHT22;62504;46.070;14.492;2024-01-25T00:47:08;5.00;99.90
64689;DHT22;62504;46.070;14.492;2024-01-25T00:49:35;5.00;99.90
64689;DHT22;62504;46.070;14.492;2024-01-25T00:52:02;4.90;99.90
64689;DHT22;62504;46.070;14.492;2024-01-25T00:54:29;4.80;99.90
64689;DHT22;62504;46.070;14.492;2024-01-25T00:56:55;4.80;99.90
64689;DHT22;62504;46.070;14.492;2024-01-25T00:59:21;4.90;99.90
64689;DHT22;62504;46.070;14.492;2024-01-25T01:01:47;4.90;99.90
64689;DHT22;62504;46.070;14.492;2024-01-25T01:04:17;5.00;99.90
64689;DHT22;62504;46.070;14.492;2024-01-25T01:06:43;4.90;99.90
64689;DHT22;62504;46.070;14.492;2024-01-25T01:09:08;4.80;99.90
64689;DHT22;62504;46.070;14.492;2024-01-25T01:11:35;4.90;99.90
64689;DHT22;62504;46.070;14.492;2024-01-25T01:14:01;4.90;99.90
64689;DHT22;62504;46.070;14.492;2024-01-25T01:16:27;4.90;99.90
64689;DHT22;62504;46.070;14.492;2024-01-25T01:18:56;4.80;99.90
64689;DHT22;62504;46.070;14.492;2024-01-25T01:21:21;4.80;99.90
64689;DHT22;62504;46.070;14.492;2024-01-25T01:23:47;4.90;99.90
64689;DHT22;62504;46.070;14.492;2024-01-25T01:26:12;4.90;99.90
64689;DHT22;62504;46.070;14.492;2024-01-25T01:28:38;4.80;99.90
64689;DHT22;62504;46.070;14.492;2024-01-25T01:31:04;4.80;99.90
64689;DHT22;62504;46.070;14.492;2024-01-25T01:33:30;4.90;99.90
64689;DHT22;62504;46.070;14.492;2024-01-25T01:35:55;5.00;99.90
64689;DHT22;62504;46.070;14.492;2024-01-25T01:38:21;5.00;99.90
64689;DHT22;62504;46.070;14.492;2024-01-25T01:40:46;4.90;99.90
64689;DHT22;62504;46.070;14.492;2024-01-25T01:43:19;4.90;99.90
64689;DHT22;62504;46.070;14.492;2024-01-25T01:45:45;4.90;99.90
64689;DHT22;62504;46.070;14.492;2024-01-25T01:48:11;4.70;99.90
64689;DHT22;62504;46.070;14.492;2024-01-25T01:50:37;4.70;99.90
64689;DHT22;62504;46.070;14.492;2024-01-25T01:53:04;4.80;99.90
64689;DHT22;62504;46.070;14.492;2024-01-25T01:55:30;4.90;99.90
64689;DHT22;62504;46.070;14.492;2024-01-25T01:57:56;4.90;99.90
64689;DHT22;62504;46.070;14.492;2024-01-25T02:00:24;4.70;99.90
64689;DHT22;62504;46.070;14.492;2024-01-25T02:02:50;4.70;99.90
64689;DHT22;62504;46.070;14.492;2024-01-25T02:05:16;4.70;99.90
64689;DHT22;62504;46.070;14.492;2024-01-25T02:07:42;4.60;99.90
64689;DHT22;62504;46.070;14.492;2024-01-25T02:10:09;4.60;99.90
64689;DHT22;62504;46.070;14.492;2024-01-25T02:12:35;4.70;99.90
64689;DHT22;62504;46.070;14.492;2024-01-25T02:15:01;4.60;99.90
64689;DHT22;62504;46.070;14.492;2024-01-25T02:17:27;4.60;99.90
64689;DHT22;62504;46.070;14.492;2024-01-25T02:19:52;4.60;99.90
64689;DHT22;62504;46.070;14.492;2024-01-25T02:22:19;4.70;99.90
64689;DHT22;62504;46.070;14.492;2024-01-25T02:24:45;4.80;99.90
64689;DHT22;62504;46.070;14.492;2024-01-25T02:27:11;4.80;99.90
64689;DHT22;62504;46.070;14.492;2024-01-25T02:29:36;4.80;99.90
64689;DHT22;62504;46.070;14.492;2024-01-25T02:32:02;4.80;99.90
64689;DHT22;62504;46.070;14.492;2024-01-25T02:34:28;4.90;99.90
64689;DHT22;62504;46.070;14.492;2024-01-25T02:36:54;4.90;99.90
64689;DHT22;62504;46.070;14.492;2024-01-25T02:39:19;5.00;99.90
64689;DHT22;62504;46.070;14.492;2024-01-25T02:41:45;4.90;99.90
64689;DHT22;62504;46.070;14.492;2024-01-25T02:44:11;4.90;99.90
64689;DHT22;62504;46.070;14.492;2024-01-25T02:46:37;5.00;99.90
64689;DHT22;62504;46.070;14.492;2024-01-25T02:49:04;4.90;99.90
64689;DHT22;62504;46.070;14.492;2024-01-25T02:51:29;4.90;99.90
64689;DHT22;62504;46.070;14.492;2024-01-25T02:53:55;5.00;99.90
64689;DHT22;62504;46.070;14.492;2024-01-25T02:56:21;4.90;99.90
64689;DHT22;62504;46.070;14.492;2024-01-25T02:58:46;5.00;99.90
64689;DHT22;62504;46.070;14.492;2024-01-25T03:01:12;5.00;99.90
64689;DHT22;62504;46.070;14.492;2024-01-25T03:03:38;5.00;99.90
64689;DHT22;62504;46.070;14.492;2024-01-25T03:06:06;5.10;99.90
64689;DHT22;62504;46.070;14.492;2024-01-25T03:08:32;5.00;99.90
64689;DHT22;62504;46.070;14.492;2024-01-25T03:10:57;5.00;99.90
64689;DHT22;62504;46.070;14.492;2024-01-25T03:13:23;5.00;99.90
64689;DHT22;62504;46.070;14.492;2024-01-25T03:15:49;5.00;99.90
64689;DHT22;62504;46.070;14.492;2024-01-25T03:18:14;5.00;99.90
64689;DHT22;62504;46.070;14.492;2024-01-25T03:20:40;5.10;99.90
64689;DHT22;62504;46.070;14.492;2024-01-25T03:23:06;5.10;99.90
64689;DHT22;62504;46.070;14.492;2024-01-25T03:25:31;5.10;99.90
64689;DHT22;62504;46.070;14.492;2024-01-25T03:27:57;5.00;99.90
64689;DHT22;62504;46.070;14.492;2024-01-25T03:30:23;4.70;99.90
64689;DHT22;62504;46.070;14.492;2024-01-25T03:32:48;4.80;99.90
64689;DHT22;62504;46.070;14.492;2024-01-25T03:35:14;4.90;99.90
64689;DHT22;62504;46.070;14.492;2024-01-25T03:37:40;5.00;99.90
64689;DHT22;62504;46.070;14.492;2024-01-25T03:40:06;5.00;99.90
64689;DHT22;62504;46.070;14.492;2024-01-25T03:42:31;4.90;99.90
64689;DHT22;62504;46.070;14.492;2024-01-25T03:44:57;4.90;99.90
64689;DHT22;62504;46.070;14.492;2024-01-25T03:47:23;5.00;99.90
64689;DHT22;62504;46.070;14.492;2024-01-25T03:49:48;4.90;99.90
64689;DHT22;62504;46.070;14.492;2024-01-25T03:52:14;4.90;99.90
64689;DHT22;62504;46.070;14.492;2024-01-25T03:54:40;4.90;99.90
64689;DHT22;62504;46.070;14.492;2024-01-25T03:57:05;4.90;99.90
64689;DHT22;62504;46.070;14.492;2024-01-25T03:59:31;4.80;99.90
64689;DHT22;62504;46.070;14.492;2024-01-25T04:01:57;4.80;99.90
64689;DHT22;62504;46.070;14.492;2024-01-25T04:04:22;4.90;99.90
64689;DHT22;62504;46.070;14.492;2024-01-25T04:06:48;5.00;99.90
64689;DHT22;62504;46.070;14.492;2024-01-25T04:09:14;4.90;99.90
64689;DHT22;62504;46.070;14.492;2024-01-25T04:11:41;4.90;99.90
64689;DHT22;62504;46.070;14.492;2024-01-25T04:14:06;5.00;99.90
64689;DHT22;62504;46.070;14.492;2024-01-25T04:16:33;4.90;99.90
64689;DHT22;62504;46.070;14.492;2024-01-25T04:18:59;5.00;99.90
64689;DHT22;62504;46.070;14.492;2024-01-25T04:21:26;5.00;99.90
64689;DHT22;62504;46.070;14.492;2024-01-25T04:23:52;5.00;99.90
64689;DHT22;62504;46.070;14.492;2024-01-25T04:26:18;5.00;99.90
64689;DHT22;62504;46.070;14.492;2024-01-25T04:28:43;5.00;99.90
64689;DHT22;62504;46.070;14.492;2024-01-25T04:31:09;5.00;99.90
64689;DHT22;62504;46.070;14.492;2024-01-25T04:33:35;4.90;99.90
64689;DHT22;62504;46.070;14.492;2024-01-25T04:36:01;4.90;99.90
64689;DHT22;62504;46.070;14.492;2024-01-25T04:38:26;5.00;99.90
64689;DHT22;62504;46.070;14.492;2024-01-25T04:40:52;4.90;99.90
64689;DHT22;62504;46.070;14.492;2024-01-25T04:43:18;4.80;99.90
64689;DHT22;62504;46.070;14.492;2024-01-25T04:45:43;4.80;99.90
64689;DHT22;62504;46.070;14.492;2024-01-25T04:48:09;4.90;99.90
64689;DHT22;62504;46.070;14.492;2024-01-25T04:50:35;4.90;99.90
64689;DHT22;62504;46.070;14.492;2024-01-25T04:53:03;5.00;99.90
64689;DHT22;62504;46.070;14.492;2024-01-25T04:55:29;5.00;99.90
64689;DHT22;62504;46.070;14.492;2024-01-25T04:57:55;5.00;99.90
64689;DHT22;62504;46.070;14.492;2024-01-25T05:00:21;5.00;99.90
64689;DHT22;62504;46.070;14.492;2024-01-25T05:02:48;5.10;99.90
64689;DHT22;62504;46.070;14.492;2024-01-25T05:05:13;5.10;99.90
64689;DHT22;62504;46.070;14.492;2024-01-25T05:07:39;5.10;99.90
64689;DHT22;62504;46.070;14.492;2024-01-25T05:10:05;5.00;99.90
64689;DHT22;62504;46.070;14.492;2024-01-25T05:12:31;5.00;99.90
64689;DHT22;62504;46.070;14.492;2024-01-25T05:14:58;5.00;99.90
64689;DHT22;62504;46.070;14.492;2024-01-25T05:17:24;5.00;99.90
64689;DHT22;62504;46.070;14.492;2024-01-25T05:19:49;4.80;99.90
64689;DHT22;62504;46.070;14.492;2024-01-25T05:22:15;4.90;99.90
64689;DHT22;62504;46.070;14.492;2024-01-25T05:24:42;5.00;99.90
64689;DHT22;62504;46.070;14.492;2024-01-25T05:27:07;5.00;99.90
64689;DHT22;62504;46.070;14.492;2024-01-25T05:29:33;5.00;99.90
64689;DHT22;62504;46.070;14.492;2024-01-25T05:31:59;5.10;99.90
64689;DHT22;62504;46.070;14.492;2024-01-25T05:34:24;5.00;99.90
64689;DHT22;62504;46.070;14.492;2024-01-25T05:36:50;4.90;99.90
64689;DHT22;62504;46.070;14.492;2024-01-25T05:39:16;5.00;99.90
64689;DHT22;62504;46.070;14.492;2024-01-25T05:41:42;5.10;99.90
64689;DHT22;62504;46.070;14.492;2024-01-25T05:44:12;5.00;99.90
64689;DHT22;62504;46.070;14.492;2024-01-25T05:46:37;4.80;99.90
64689;DHT22;62504;46.070;14.492;2024-01-25T05:49:03;4.90;99.90
64689;DHT22;62504;46.070;14.492;2024-01-25T05:51:29;4.90;99.90
64689;DHT22;62504;46.070;14.492;2024-01-25T05:53:55;5.00;99.90
64689;DHT22;62504;46.070;14.492;2024-01-25T05:56:20;4.90;99.90
64689;DHT22;62504;46.070;14.492;2024-01-25T05:58:46;5.00;99.90
64689;DHT22;62504;46.070;14.492;2024-01-25T06:01:12;4.90;99.90
64689;DHT22;62504;46.070;14.492;2024-01-25T06:03:37;4.90;99.90
64689;DHT22;62504;46.070;14.492;2024-01-25T06:06:03;5.00;99.90
64689;DHT22;62504;46.070;14.492;2024-01-25T06:08:29;5.00;99.90
64689;DHT22;62504;46.070;14.492;2024-01-25T06:10:54;5.00;99.90
64689;DHT22;62504;46.070;14.492;2024-01-25T06:13:20;5.00;99.90
64689;DHT22;62504;46.070;14.492;2024-01-25T06:15:45;5.00;99.90
64689;DHT22;62504;46.070;14.492;2024-01-25T06:18:11;5.10;99.90
64689;DHT22;62504;46.070;14.492;2024-01-25T06:20:37;5.00;99.90
64689;DHT22;62504;46.070;14.492;2024-01-25T06:23:02;5.00;99.90
64689;DHT22;62504;46.070;14.492;2024-01-25T06:25:28;5.00;99.90
64689;DHT22;62504;46.070;14.492;2024-01-25T06:27:57;5.00;99.90
64689;DHT22;62504;46.070;14.492;2024-01-25T06:30:23;5.00;99.90
64689;DHT22;62504;46.070;14.492;2024-01-25T06:32:48;4.90;99.90
64689;DHT22;62504;46.070;14.492;2024-01-25T06:35:14;4.70;99.90
64689;DHT22;62504;46.070;14.492;2024-01-25T06:37:41;4.70;99.90
64689;DHT22;62504;46.070;14.492;2024-01-25T06:40:07;4.80;99.90
64689;DHT22;62504;46.070;14.492;2024-01-25T06:42:33;4.80;99.90
64689;DHT22;62504;46.070;14.492;2024-01-25T06:44:59;4.90;99.90
64689;DHT22;62504;46.070;14.492;2024-01-25T06:47:24;4.90;99.90
64689;DHT22;62504;46.070;14.492;2024-01-25T06:49:50;4.90;99.90
64689;DHT22;62504;46.070;14.492;2024-01-25T06:52:17;5.00;99.90
64689;DHT22;62504;46.070;14.492;2024-01-25T06:54:43;5.00;99.90
64689;DHT22;62504;46.070;14.492;2024-01-25T06:57:09;5.00;99.90
64689;DHT22;62504;46.070;14.492;2024-01-25T06:59:34;5.00;99.90
64689;DHT22;62504;46.070;14.492;2024-01-25T07:02:00;4.90;99.90
64689;DHT22;62504;46.070;14.492;2024-01-25T07:04:28;4.90;99.90
64689;DHT22;62504;46.070;14.492;2024-01-25T07:06:54;5.00;99.90
64689;DHT22;62504;46.070;14.492;2024-01-25T07:09:20;5.00;99.90
64689;DHT22;62504;46.070;14.492;2024-01-25T07:11:46;5.00;99.90
64689;DHT22;62504;46.070;14.492;2024-01-25T07:14:11;5.00;99.90
64689;DHT22;62504;46.070;14.492;2024-01-25T07:16:37;4.90;99.90
64689;DHT22;62504;46.070;14.492;2024-01-25T07:19:03;4.90;99.90
64689;DHT22;62504;46.070;14.492;2024-01-25T07:21:29;5.00;99.90
64689;DHT22;62504;46.070;14.492;2024-01-25T07:24:02;5.00;99.90
64689;DHT22;62504;46.070;14.492;2024-01-25T07:26:29;4.90;99.90
64689;DHT22;62504;46.070;14.492;2024-01-25T07:28:55;5.00;99.90
64689;DHT22;62504;46.070;14.492;2024-01-25T07:31:27;5.00;99.90
64689;DHT22;62504;46.070;14.492;2024-01-25T07:33:53;5.00;99.90
64689;DHT22;62504;46.070;14.492;2024-01-25T07:36:19;5.00;99.90
64689;DHT22;62504;46.070;14.492;2024-01-25T07:38:45;5.10;99.90
64689;DHT22;62504;46.070;14.492;2024-01-25T07:41:17;5.10;99.90
64689;DHT22;62504;46.070;14.492;2024-01-25T07:43:43;5.10;99.90
64689;DHT22;62504;46.070;14.492;2024-01-25T07:46:09;5.10;99.90
64689;DHT22;62504;46.070;14.492;2024-01-25T07:48:35;5.10;99.90
64689;DHT22;62504;46.070;14.492;2024-01-25T07:51:01;5.10;99.90
64689;DHT22;62504;46.070;14.492;2024-01-25T07:53:27;5.10;99.90
64689;DHT22;62504;46.070;14.492;2024-01-25T07:55:52;5.20;99.90
64689;DHT22;62504;46.070;14.492;2024-01-25T07:58:18;5.30;99.90
64689;DHT22;62504;46.070;14.492;2024-01-25T08:00:44;5.30;99.90
64689;DHT22;62504;46.070;14.492;2024-01-25T08:03:29;5.40;99.90
64689;DHT22;62504;46.070;14.492;2024-01-25T08:05:55;5.40;99.90
64689;DHT22;62504;46.070;14.492;2024-01-25T08:08:21;5.40;99.90
64689;DHT22;62504;46.070;14.492;2024-01-25T08:10:46;5.50;99.90
64689;DHT22;62504;46.070;14.492;2024-01-25T08:13:12;5.50;99.90
64689;DHT22;62504;46.070;14.492;2024-01-25T08:15:38;5.50;99.90
64689;DHT22;62504;46.070;14.492;2024-01-25T08:18:04;5.50;99.90
64689;DHT22;62504;46.070;14.492;2024-01-25T08:20:30;5.50;99.90
64689;DHT22;62504;46.070;14.492;2024-01-25T08:22:56;5.50;99.90
64689;DHT22;62504;46.070;14.492;2024-01-25T08:25:21;5.50;99.90
64689;DHT22;62504;46.070;14.492;2024-01-25T08:27:47;5.60;99.90
64689;DHT22;62504;46.070;14.492;2024-01-25T08:30:13;5.60;99.90
64689;DHT22;62504;46.070;14.492;2024-01-25T08:35:42;5.70;99.90
64689;DHT22;62504;46.070;14.492;2024-01-25T08:38:08;5.70;99.90
64689;DHT22;62504;46.070;14.492;2024-01-25T08:40:34;5.70;99.90
64689;DHT22;62504;46.070;14.492;2024-01-25T08:42:59;5.80;99.90
64689;DHT22;62504;46.070;14.492;2024-01-25T08:45:25;5.90;99.90
64689;DHT22;62504;46.070;14.492;2024-01-25T08:47:51;6.10;99.90
64689;DHT22;62504;46.070;14.492;2024-01-25T08:50:18;6.20;99.90
64689;DHT22;62504;46.070;14.492;2024-01-25T08:52:43;6.30;99.90
64689;DHT22;62504;46.070;14.492;2024-01-25T08:55:09;6.20;99.90
64689;DHT22;62504;46.070;14.492;2024-01-25T08:57:37;6.40;99.90
64689;DHT22;62504;46.070;14.492;2024-01-25T09:00:05;6.90;99.90
64689;DHT22;62504;46.070;14.492;2024-01-25T09:05:38;7.10;99.90
64689;DHT22;62504;46.070;14.492;2024-01-25T09:08:13;7.30;99.90
64689;DHT22;62504;46.070;14.492;2024-01-25T09:10:40;7.40;99.90
64689;DHT22;62504;46.070;14.492;2024-01-25T09:13:06;7.50;99.90
64689;DHT22;62504;46.070;14.492;2024-01-25T09:15:32;7.70;99.90
64689;DHT22;62504;46.070;14.492;2024-01-25T09:17:58;7.90;99.90
64689;DHT22;62504;46.070;14.492;2024-01-25T09:20:23;7.80;99.90
64689;DHT22;62504;46.070;14.492;2024-01-25T09:22:49;7.70;99.90
64689;DHT22;62504;46.070;14.492;2024-01-25T09:25:15;7.80;99.90
64689;DHT22;62504;46.070;14.492;2024-01-25T09:27:41;8.20;99.90
64689;DHT22;62504;46.070;14.492;2024-01-25T09:30:07;8.30;99.90
64689;DHT22;62504;46.070;14.492;2024-01-25T09:32:33;8.40;99.90
64689;DHT22;62504;46.070;14.492;2024-01-25T09:34:59;8.50;99.90
64689;DHT22;62504;46.070;14.492;2024-01-25T09:37:25;8.40;99.90
64689;DHT22;62504;46.070;14.492;2024-01-25T09:39:51;8.30;99.90
64689;DHT22;62504;46.070;14.492;2024-01-25T09:42:17;8.20;99.90
64689;DHT22;62504;46.070;14.492;2024-01-25T09:44:44;7.70;99.90
64689;DHT22;62504;46.070;14.492;2024-01-25T09:47:10;7.50;99.90
64689;DHT22;62504;46.070;14.492;2024-01-25T09:49:35;7.30;99.90
64689;DHT22;62504;46.070;14.492;2024-01-25T09:52:05;7.40;99.90
64689;DHT22;62504;46.070;14.492;2024-01-25T09:54:36;7.70;99.90
64689;DHT22;62504;46.070;14.492;2024-01-25T09:57:08;8.40;99.90
64689;DHT22;62504;46.070;14.492;2024-01-25T09:59:34;9.10;99.90
64689;DHT22;62504;46.070;14.492;2024-01-25T10:02:01;8.90;99.90
64689;DHT22;62504;46.070;14.492;2024-01-25T10:04:28;8.90;99.90
64689;DHT22;62504;46.070;14.492;2024-01-25T10:06:56;8.90;99.90
64689;DHT22;62504;46.070;14.492;2024-01-25T10:09:23;9.20;99.90
64689;DHT22;62504;46.070;14.492;2024-01-25T10:11:49;9.40;99.90
64689;DHT22;62504;46.070;14.492;2024-01-25T10:14:14;9.50;99.90
64689;DHT22;62504;46.070;14.492;2024-01-25T10:16:40;9.70;99.90
64689;DHT22;62504;46.070;14.492;2024-01-25T10:19:06;9.90;99.90
64689;DHT22;62504;46.070;14.492;2024-01-25T10:21:35;10.10;99.90
64689;DHT22;62504;46.070;14.492;2024-01-25T10:24:01;10.20;99.90
64689;DHT22;62504;46.070;14.492;2024-01-25T10:26:27;10.30;99.90
64689;DHT22;62504;46.070;14.492;2024-01-25T10:28:56;10.40;99.90
64689;DHT22;62504;46.070;14.492;2024-01-25T10:31:25;10.40;99.90
64689;DHT22;62504;46.070;14.492;2024-01-25T10:33:52;10.40;99.90
64689;DHT22;62504;46.070;14.492;2024-01-25T10:36:21;10.30;99.90
64689;DHT22;62504;46.070;14.492;2024-01-25T10:38:48;10.20;99.90
64689;DHT22;62504;46.070;14.492;2024-01-25T10:41:15;10.10;99.90
64689;DHT22;62504;46.070;14.492;2024-01-25T10:43:41;9.90;99.90
64689;DHT22;62504;46.070;14.492;2024-01-25T10:46:07;10.00;99.90
64689;DHT22;62504;46.070;14.492;2024-01-25T10:48:34;9.80;99.90
64689;DHT22;62504;46.070;14.492;2024-01-25T10:51:00;9.70;99.90
64689;DHT22;62504;46.070;14.492;2024-01-25T10:53:33;9.80;99.90
64689;DHT22;62504;46.070;14.492;2024-01-25T10:56:00;9.80;99.90
64689;DHT22;62504;46.070;14.492;2024-01-25T10:58:31;9.70;99.90
64689;DHT22;62504;46.070;14.492;2024-01-25T11:00:58;9.60;99.90
64689;DHT22;62504;46.070;14.492;2024-01-25T11:03:28;9.50;99.90
64689;DHT22;62504;46.070;14.492;2024-01-25T11:06:09;9.50;99.90
64689;DHT22;62504;46.070;14.492;2024-01-25T11:08:35;9.40;99.90
64689;DHT22;62504;46.070;14.492;2024-01-25T11:11:05;9.40;99.90
64689;DHT22;62504;46.070;14.492;2024-01-25T11:13:32;9.20;99.90
64689;DHT22;62504;46.070;14.492;2024-01-25T11:15:58;9.20;99.90
64689;DHT22;62504;46.070;14.492;2024-01-25T11:18:26;9.20;99.90
64689;DHT22;62504;46.070;14.492;2024-01-25T11:20:52;9.40;99.90
64689;DHT22;62504;46.070;14.492;2024-01-25T11:23:17;9.60;99.90
64689;DHT22;62504;46.070;14.492;2024-01-25T11:25:47;9.70;99.90
64689;DHT22;62504;46.070;14.492;2024-01-25T11:28:14;9.90;99.90
64689;DHT22;62504;46.070;14.492;2024-01-25T11:30:44;10.00;99.90
64689;DHT22;62504;46.070;14.492;2024-01-25T11:33:11;10.00;99.90
64689;DHT22;62504;46.070;14.492;2024-01-25T11:35:37;9.90;99.90
64689;DHT22;62504;46.070;14.492;2024-01-25T11:38:03;9.90;99.90
64689;DHT22;62504;46.070;14.492;2024-01-25T11:40:29;9.90;99.90
64689;DHT22;62504;46.070;14.492;2024-01-25T11:42:56;9.90;99.90
64689;DHT22;62504;46.070;14.492;2024-01-25T11:45:22;9.90;99.90
64689;DHT22;62504;46.070;14.492;2024-01-25T11:47:48;9.80;99.90
64689;DHT22;62504;46.070;14.492;2024-01-25T11:50:14;9.90;99.90
64689;DHT22;62504;46.070;14.492;2024-01-25T11:52:40;9.80;99.90
64689;DHT22;62504;46.070;14.492;2024-01-25T11:55:07;9.80;99.90
64689;DHT22;62504;46.070;14.492;2024-01-25T11:57:39;9.80;99.90
64689;DHT22;62504;46.070;14.492;2024-01-25T12:00:10;9.80;99.90
64689;DHT22;62504;46.070;14.492;2024-01-25T12:02:38;9.80;99.90
64689;DHT22;62504;46.070;14.492;2024-01-25T12:05:04;9.80;99.90
64689;DHT22;62504;46.070;14.492;2024-01-25T12:07:31;9.70;99.90
64689;DHT22;62504;46.070;14.492;2024-01-25T12:10:04;9.70;99.90
64689;DHT22;62504;46.070;14.492;2024-01-25T12:12:30;9.70;99.90
64689;DHT22;62504;46.070;14.492;2024-01-25T12:15:00;9.80;99.90
64689;DHT22;62504;46.070;14.492;2024-01-25T12:17:30;9.90;99.90
64689;DHT22;62504;46.070;14.492;2024-01-25T12:19:56;9.90;99.90
64689;DHT22;62504;46.070;14.492;2024-01-25T12:22:23;10.00;99.90
64689;DHT22;62504;46.070;14.492;2024-01-25T12:24:50;10.00;99.90
64689;DHT22;62504;46.070;14.492;2024-01-25T12:27:15;10.00;99.90
64689;DHT22;62504;46.070;14.492;2024-01-25T12:29:41;9.90;99.90
64689;DHT22;62504;46.070;14.492;2024-01-25T12:32:09;10.00;99.90
64689;DHT22;62504;46.070;14.492;2024-01-25T12:34:35;9.90;99.90
64689;DHT22;62504;46.070;14.492;2024-01-25T12:37:03;9.80;99.90
64689;DHT22;62504;46.070;14.492;2024-01-25T12:39:28;9.80;99.90
64689;DHT22;62504;46.070;14.492;2024-01-25T12:41:54;9.70;99.90
64689;DHT22;62504;46.070;14.492;2024-01-25T12:44:19;9.70;99.90
64689;DHT22;62504;46.070;14.492;2024-01-25T12:46:45;9.80;99.90
64689;DHT22;62504;46.070;14.492;2024-01-25T12:49:11;10.00;99.90
64689;DHT22;62504;46.070;14.492;2024-01-25T12:51:36;10.00;99.90
64689;DHT22;62504;46.070;14.492;2024-01-25T12:54:02;10.00;99.90
64689;DHT22;62504;46.070;14.492;2024-01-25T12:56:28;10.00;99.90
64689;DHT22;62504;46.070;14.492;2024-01-25T12:58:54;10.10;99.90
64689;DHT22;62504;46.070;14.492;2024-01-25T13:01:19;10.00;99.90
64689;DHT22;62504;46.070;14.492;2024-01-25T13:03:46;9.90;99.90
64689;DHT22;62504;46.070;14.492;2024-01-25T13:06:12;10.00;99.90
64689;DHT22;62504;46.070;14.492;2024-01-25T13:08:38;9.90;99.90
64689;DHT22;62504;46.070;14.492;2024-01-25T13:11:04;9.90;99.90
64689;DHT22;62504;46.070;14.492;2024-01-25T13:13:29;10.00;99.90
64689;DHT22;62504;46.070;14.492;2024-01-25T13:15:55;10.00;99.90
64689;DHT22;62504;46.070;14.492;2024-01-25T13:18:21;10.10;99.90
64689;DHT22;62504;46.070;14.492;2024-01-25T13:20:46;10.20;99.90
64689;DHT22;62504;46.070;14.492;2024-01-25T13:23:13;10.20;99.90
64689;DHT22;62504;46.070;14.492;2024-01-25T13:25:38;10.30;99.90
64689;DHT22;62504;46.070;14.492;2024-01-25T13:28:04;10.30;99.90
64689;DHT22;62504;46.070;14.492;2024-01-25T13:30:30;10.20;99.90
64689;DHT22;62504;46.070;14.492;2024-01-25T13:32:56;10.20;99.90
64689;DHT22;62504;46.070;14.492;2024-01-25T13:35:21;10.30;99.90
64689;DHT22;62504;46.070;14.492;2024-01-25T13:37:47;10.40;99.90
64689;DHT22;62504;46.070;14.492;2024-01-25T13:40:13;10.40;99.90
64689;DHT22;62504;46.070;14.492;2024-01-25T13:42:38;10.40;99.90
64689;DHT22;62504;46.070;14.492;2024-01-25T13:45:06;10.40;99.90
64689;DHT22;62504;46.070;14.492;2024-01-25T13:47:32;10.40;99.90
64689;DHT22;62504;46.070;14.492;2024-01-25T13:49:58;10.40;99.90
64689;DHT22;62504;46.070;14.492;2024-01-25T13:52:23;10.50;99.90
64689;DHT22;62504;46.070;14.492;2024-01-25T13:54:49;10.50;99.90
64689;DHT22;62504;46.070;14.492;2024-01-25T13:57:15;10.60;99.90
64689;DHT22;62504;46.070;14.492;2024-01-25T13:59:41;10.60;99.90
64689;DHT22;62504;46.070;14.492;2024-01-25T14:02:07;10.60;99.90
64689;DHT22;62504;46.070;14.492;2024-01-25T14:04:32;10.60;99.90
64689;DHT22;62504;46.070;14.492;2024-01-25T14:06:58;10.60;99.90
64689;DHT22;62504;46.070;14.492;2024-01-25T14:09:24;10.60;99.90
64689;DHT22;62504;46.070;14.492;2024-01-25T14:11:49;10.70;99.90
64689;DHT22;62504;46.070;14.492;2024-01-25T14:14:15;10.60;99.90
64689;DHT22;62504;46.070;14.492;2024-01-25T14:16:41;10.60;99.90
64689;DHT22;62504;46.070;14.492;2024-01-25T14:19:06;10.40;99.90
64689;DHT22;62504;46.070;14.492;2024-01-25T14:21:32;10.50;99.90
64689;DHT22;62504;46.070;14.492;2024-01-25T14:23:58;10.50;99.90
64689;DHT22;62504;46.070;14.492;2024-01-25T14:26:23;10.50;99.90
64689;DHT22;62504;46.070;14.492;2024-01-25T14:28:49;10.60;99.90
64689;DHT22;62504;46.070;14.492;2024-01-25T14:31:15;10.50;99.90
64689;DHT22;62504;46.070;14.492;2024-01-25T14:33:41;10.50;99.90
64689;DHT22;62504;46.070;14.492;2024-01-25T14:36:06;10.60;99.90
64689;DHT22;62504;46.070;14.492;2024-01-25T14:38:32;10.50;99.90
64689;DHT22;62504;46.070;14.492;2024-01-25T14:40:59;10.60;99.90
64689;DHT22;62504;46.070;14.492;2024-01-25T14:43:25;10.50;99.90
64689;DHT22;62504;46.070;14.492;2024-01-25T14:45:51;10.50;99.90
64689;DHT22;62504;46.070;14.492;2024-01-25T14:48:17;10.40;99.90
64689;DHT22;62504;46.070;14.492;2024-01-25T14:50:43;10.50;99.90
64689;DHT22;62504;46.070;14.492;2024-01-25T14:53:09;10.50;99.90
64689;DHT22;62504;46.070;14.492;2024-01-25T14:55:34;10.50;99.90
64689;DHT22;62504;46.070;14.492;2024-01-25T14:58:00;10.40;99.90
64689;DHT22;62504;46.070;14.492;2024-01-25T15:00:26;10.40;99.90
64689;DHT22;62504;46.070;14.492;2024-01-25T15:02:51;10.40;99.90
64689;DHT22;62504;46.070;14.492;2024-01-25T15:05:17;10.40;99.90
64689;DHT22;62504;46.070;14.492;2024-01-25T15:07:43;10.30;99.90
64689;DHT22;62504;46.070;14.492;2024-01-25T15:10:09;10.30;99.90
64689;DHT22;62504;46.070;14.492;2024-01-25T15:12:35;10.30;99.90
64689;DHT22;62504;46.070;14.492;2024-01-25T15:15:00;10.30;99.90
64689;DHT22;62504;46.070;14.492;2024-01-25T15:17:26;10.20;99.90
64689;DHT22;62504;46.070;14.492;2024-01-25T15:19:52;10.10;99.90
64689;DHT22;62504;46.070;14.492;2024-01-25T15:22:17;10.10;99.90
64689;DHT22;62504;46.070;14.492;2024-01-25T15:24:43;10.10;99.90
64689;DHT22;62504;46.070;14.492;2024-01-25T15:27:10;10.10;99.90